Time;durP1;ratioP1;P1;durP2;ratioP2;P2;SDS_P1;SDS_P2;PMS_P1;PMS_P2;Temp;Humidity;BMP_temperature;BMP_pressure;BME280_temperature;BME280_humidity;BME280_pressure;Samples;Min_cycle;Max_cycle;Signal;HPM_P1;HPM_P2
2022/07/09 00:01:00;;;;;;;2.31;2.07;;;;;;;;;;353113;152;858100;-63
2022/07/09 00:02:02;;;;;;;3.63;2.21;;;;;;;;;;353212;152;865575;-64
2022/07/09 00:03:04;;;;;;;4.01;2.31;;;;;;;;;;353203;152;858426;-63
2022/07/09 00:04:06;;;;;;;4.93;2.51;;;;;;;;;;353248;152;857453;-65
2022/07/09 00:05:08;;;;;;;5.01;2.29;;;;;;;;;;353407;152;856788;-66
2022/07/09 00:06:10;;;;;;;2.52;2.12;;;;;;;;;;353282;152;859583;-65
2022/07/09 00:07:13;;;;;;;2.47;2.24;;;;;;;;;;353273;152;857300;-67
2022/07/09 00:08:15;;;;;;;4.31;2.48;;;;;;;;;;353014;152;864924;-64
2022/07/09 00:09:17;;;;;;;4.19;2.57;;;;;;;;;;353180;152;859893;-63
2022/07/09 00:10:20;;;;;;;2.44;2.00;;;;;;;;;;353091;152;864815;-62
2022/07/09 00:11:22;;;;;;;4.66;2.43;;;;;;;;;;353202;152;857313;-63
2022/07/09 00:12:23;;;;;;;3.24;2.27;;;;;;;;;;353227;152;864680;-64
2022/07/09 00:13:25;;;;;;;4.26;2.40;;;;;;;;;;353108;152;866453;-65
2022/07/09 00:14:27;;;;;;;3.03;2.19;;;;;;;;;;353303;152;857440;-65
2022/07/09 00:15:28;;;;;;;2.57;2.28;;;;;;;;;;355016;150;858914;-69
2022/07/09 00:16:30;;;;;;;3.61;2.00;;;;;;;;;;351002;153;864541;-68
2022/07/09 00:17:32;;;;;;;2.73;1.96;;;;;;;;;;344866;155;859647;-68
2022/07/09 00:18:34;;;;;;;2.85;2.19;;;;;;;;;;352124;152;859510;-64
2022/07/09 00:19:36;;;;;;;4.34;2.56;;;;;;;;;;358825;150;857344;-65
2022/07/09 00:20:38;;;;;;;3.69;2.33;;;;;;;;;;351302;153;865963;-65
2022/07/09 00:21:39;;;;;;;3.34;2.24;;;;;;;;;;344823;156;857568;-64
2022/07/09 00:22:42;;;;;;;9.01;2.29;;;;;;;;;;351162;152;865427;-65
2022/07/09 00:23:43;;;;;;;2.42;1.83;;;;;;;;;;344219;155;857244;-66
2022/07/09 00:24:45;;;;;;;3.66;2.41;;;;;;;;;;342794;157;859456;-65
2022/07/09 00:25:46;;;;;;;4.20;2.50;;;;;;;;;;342646;157;864851;-63
2022/07/09 00:26:48;;;;;;;3.16;2.20;;;;;;;;;;342782;157;865462;-64
2022/07/09 00:27:50;;;;;;;3.24;2.34;;;;;;;;;;342626;157;865284;-65
2022/07/09 00:28:51;;;;;;;2.63;2.12;;;;;;;;;;342847;157;858259;-65
2022/07/09 00:29:53;;;;;;;4.46;2.10;;;;;;;;;;342850;157;858499;-65
2022/07/09 00:30:55;;;;;;;2.43;2.23;;;;;;;;;;342808;157;857335;-65
2022/07/09 00:31:57;;;;;;;2.57;2.27;;;;;;;;;;342708;157;857659;-65
2022/07/09 00:32:59;;;;;;;5.43;2.19;;;;;;;;;;342663;157;864681;-65
2022/07/09 00:34:00;;;;;;;2.17;1.94;;;;;;;;;;342637;156;866630;-65
2022/07/09 00:35:02;;;;;;;3.66;1.99;;;;;;;;;;342827;157;865309;-63
2022/07/09 00:36:05;;;;;;;3.27;2.36;;;;;;;;;;342885;157;857205;-63
2022/07/09 00:37:06;;;;;;;2.69;2.27;;;;;;;;;;342911;157;860254;-63
2022/07/09 00:38:08;;;;;;;7.16;2.29;;;;;;;;;;342842;157;857808;-65
2022/07/09 00:39:09;;;;;;;4.42;2.46;;;;;;;;;;342853;157;865442;-63
2022/07/09 00:40:15;;;;;;;4.53;2.31;;;;;;;;;;345353;156;860860;-65
2022/07/09 00:41:18;;;;;;;7.21;2.38;;;;;;;;;;355116;151;859444;-64
2022/07/09 00:42:20;;;;;;;3.96;2.54;;;;;;;;;;350373;153;857381;-64
2022/07/09 00:43:22;;;;;;;3.49;2.10;;;;;;;;;;350623;151;864827;-65
2022/07/09 00:44:26;;;;;;;3.40;2.15;;;;;;;;;;357786;150;859935;-66
2022/07/09 00:45:27;;;;;;;4.31;2.52;;;;;;;;;;355004;151;857727;-69
2022/07/09 00:46:31;;;;;;;2.87;2.17;;;;;;;;;;356000;151;858749;-69
2022/07/09 00:47:32;;;;;;;2.72;2.35;;;;;;;;;;356165;151;857662;-65
2022/07/09 00:48:34;;;;;;;2.98;2.29;;;;;;;;;;356165;151;858463;-69
2022/07/09 00:49:37;;;;;;;4.37;2.01;;;;;;;;;;355966;151;858396;-64
2022/07/09 00:50:39;;;;;;;3.28;2.22;;;;;;;;;;355873;151;864712;-65
2022/07/09 00:51:41;;;;;;;3.41;2.09;;;;;;;;;;355837;151;857359;-64
2022/07/09 00:52:42;;;;;;;3.77;2.26;;;;;;;;;;356085;151;857316;-65
2022/07/09 00:53:44;;;;;;;2.61;2.17;;;;;;;;;;356025;151;859021;-64
2022/07/09 00:54:46;;;;;;;3.76;2.49;;;;;;;;;;355969;150;858573;-65
2022/07/09 00:55:48;;;;;;;3.12;1.98;;;;;;;;;;355821;151;866479;-64
2022/07/09 00:56:50;;;;;;;2.79;2.43;;;;;;;;;;357672;150;859654;-65
2022/07/09 00:57:52;;;;;;;3.64;2.33;;;;;;;;;;358477;149;859434;-64
2022/07/09 00:58:53;;;;;;;3.29;2.12;;;;;;;;;;358630;149;857988;-63
2022/07/09 00:59:55;;;;;;;2.36;2.15;;;;;;;;;;356619;149;858310;-64
2022/07/09 01:00:57;;;;;;;7.03;2.58;;;;;;;;;;350588;153;857350;-62
2022/07/09 01:01:59;;;;;;;3.36;2.44;;;;;;;;;;341995;154;859518;-65
2022/07/09 01:03:03;;;;;;;3.79;2.61;;;;;;;;;;348237;151;866650;-67
2022/07/09 01:04:05;;;;;;;2.30;2.10;;;;;;;;;;355942;151;858822;-65
2022/07/09 01:05:07;;;;;;;4.66;2.10;;;;;;;;;;356025;151;859480;-64
2022/07/09 01:06:11;;;;;;;3.98;2.42;;;;;;;;;;355648;149;859596;-67
2022/07/09 01:07:13;;;;;;;2.91;2.40;;;;;;;;;;355860;151;857367;-65
2022/07/09 01:08:14;;;;;;;2.93;2.18;;;;;;;;;;355814;151;865492;-63
2022/07/09 01:09:16;;;;;;;3.69;2.46;;;;;;;;;;355908;151;864949;-63
2022/07/09 01:10:19;;;;;;;4.03;2.39;;;;;;;;;;355892;149;859112;-64
2022/07/09 01:11:21;;;;;;;4.39;2.39;;;;;;;;;;356085;151;857781;-65
2022/07/09 01:12:23;;;;;;;4.04;2.51;;;;;;;;;;356002;151;859842;-65
2022/07/09 01:13:24;;;;;;;3.03;2.62;;;;;;;;;;356036;151;857375;-63
2022/07/09 01:14:26;;;;;;;3.34;2.46;;;;;;;;;;355863;151;859784;-64
2022/07/09 01:15:28;;;;;;;8.98;2.98;;;;;;;;;;350648;153;865350;-65
2022/07/09 01:16:31;;;;;;;4.15;2.73;;;;;;;;;;350929;151;857427;-69
2022/07/09 01:17:38;;;;;;;6.07;3.07;;;;;;;;;;356154;150;858590;-69
2022/07/09 01:18:39;;;;;;;4.48;2.66;;;;;;;;;;355375;151;857790;-69
2022/07/09 01:19:41;;;;;;;2.74;2.49;;;;;;;;;;356261;151;860364;-68
2022/07/09 01:20:43;;;;;;;3.20;2.47;;;;;;;;;;356361;150;864442;-69
2022/07/09 01:21:44;;;;;;;3.51;2.36;;;;;;;;;;356079;151;864704;-64
2022/07/09 01:22:46;;;;;;;2.99;2.54;;;;;;;;;;355991;151;857365;-65
2022/07/09 01:23:48;;;;;;;3.80;2.31;;;;;;;;;;356012;151;864774;-66
2022/07/09 01:24:50;;;;;;;3.54;2.59;;;;;;;;;;355989;151;860384;-65
2022/07/09 01:25:51;;;;;;;4.29;2.78;;;;;;;;;;356022;151;857048;-65
2022/07/09 01:26:53;;;;;;;2.33;2.08;;;;;;;;;;355984;150;857352;-64
2022/07/09 01:27:55;;;;;;;3.59;2.58;;;;;;;;;;355817;151;866586;-65
2022/07/09 01:28:57;;;;;;;3.34;2.46;;;;;;;;;;355774;151;864800;-63
2022/07/09 01:29:58;;;;;;;3.09;2.42;;;;;;;;;;355856;151;864753;-65
2022/07/09 01:31:00;;;;;;;3.23;2.49;;;;;;;;;;355807;151;857431;-65
2022/07/09 01:32:02;;;;;;;3.02;2.71;;;;;;;;;;355856;151;865628;-65
2022/07/09 01:33:04;;;;;;;8.34;2.92;;;;;;;;;;355800;151;865618;-66
2022/07/09 01:34:05;;;;;;;5.46;3.42;;;;;;;;;;355993;151;857485;-64
2022/07/09 01:35:07;;;;;;;4.12;2.92;;;;;;;;;;356104;151;858035;-65
2022/07/09 01:36:10;;;;;;;2.99;2.75;;;;;;;;;;356289;150;865963;-64
2022/07/09 01:37:12;;;;;;;5.23;2.89;;;;;;;;;;358715;150;857249;-66
2022/07/09 01:38:14;;;;;;;3.37;2.86;;;;;;;;;;358601;149;857424;-64
2022/07/09 01:39:16;;;;;;;3.88;2.64;;;;;;;;;;358700;149;857888;-64
2022/07/09 01:40:19;;;;;;;5.64;2.67;;;;;;;;;;356424;148;858778;-63
2022/07/09 01:41:23;;;;;;;3.96;2.84;;;;;;;;;;351205;153;858992;-63
2022/07/09 01:42:25;;;;;;;5.27;2.75;;;;;;;;;;344756;155;858023;-65
2022/07/09 01:43:27;;;;;;;5.26;3.02;;;;;;;;;;351373;152;857458;-68
2022/07/09 01:44:29;;;;;;;3.20;2.93;;;;;;;;;;344936;155;858520;-63
2022/07/09 01:45:31;;;;;;;4.87;3.02;;;;;;;;;;351330;153;857940;-64
2022/07/09 01:46:33;;;;;;;4.59;2.97;;;;;;;;;;344117;155;857401;-65
2022/07/09 01:47:35;;;;;;;4.12;3.09;;;;;;;;;;351370;153;858186;-68
2022/07/09 01:48:38;;;;;;;4.76;3.17;;;;;;;;;;344944;155;864849;-64
2022/07/09 01:49:40;;;;;;;3.84;3.10;;;;;;;;;;351357;152;867025;-68
2022/07/09 01:50:42;;;;;;;7.89;3.28;;;;;;;;;;344851;156;857299;-68
2022/07/09 01:51:45;;;;;;;3.66;2.99;;;;;;;;;;345445;154;859454;-69
2022/07/09 01:52:47;;;;;;;3.41;2.69;;;;;;;;;;352345;150;860151;-62
2022/07/09 01:53:49;;;;;;;3.35;2.94;;;;;;;;;;358037;150;858882;-66
2022/07/09 01:54:50;;;;;;;3.61;3.22;;;;;;;;;;358109;150;865640;-62
2022/07/09 01:55:52;;;;;;;4.04;3.06;;;;;;;;;;351052;152;864478;-62
2022/07/09 01:56:54;;;;;;;6.33;3.03;;;;;;;;;;344754;155;858135;-62
2022/07/09 01:57:55;;;;;;;3.45;3.15;;;;;;;;;;351168;152;857775;-64
2022/07/09 01:58:57;;;;;;;4.20;3.22;;;;;;;;;;343320;155;858386;-62
2022/07/09 01:59:59;;;;;;;6.34;3.19;;;;;;;;;;342726;157;864718;-64
2022/07/09 02:01:00;;;;;;;3.27;2.97;;;;;;;;;;342812;157;860184;-67
2022/07/09 02:02:02;;;;;;;3.64;2.91;;;;;;;;;;342791;157;857307;-63
2022/07/09 02:03:04;;;;;;;4.79;3.21;;;;;;;;;;342766;157;858553;-65
2022/07/09 02:04:05;;;;;;;3.25;2.86;;;;;;;;;;342704;157;867651;-63
2022/07/09 02:05:08;;;;;;;4.21;3.33;;;;;;;;;;342874;157;857627;-64
2022/07/09 02:06:10;;;;;;;5.12;3.36;;;;;;;;;;342718;157;866138;-62
2022/07/09 02:07:12;;;;;;;3.65;3.21;;;;;;;;;;342833;157;857686;-63
2022/07/09 02:08:15;;;;;;;3.67;3.05;;;;;;;;;;342815;157;857408;-64
2022/07/09 02:09:17;;;;;;;3.19;2.87;;;;;;;;;;344673;156;857355;-65
2022/07/09 02:10:21;;;;;;;5.15;3.24;;;;;;;;;;351038;152;858722;-65
2022/07/09 02:11:22;;;;;;;4.95;3.20;;;;;;;;;;344784;155;859063;-65
2022/07/09 02:12:24;;;;;;;5.05;3.46;;;;;;;;;;351226;152;860320;-64
2022/07/09 02:13:26;;;;;;;4.34;3.27;;;;;;;;;;344736;155;858355;-65
2022/07/09 02:14:28;;;;;;;5.54;3.38;;;;;;;;;;351244;153;857860;-64
2022/07/09 02:15:29;;;;;;;3.49;2.98;;;;;;;;;;344903;155;859456;-65
2022/07/09 02:16:32;;;;;;;3.61;2.95;;;;;;;;;;351252;152;864848;-64
2022/07/09 02:17:34;;;;;;;5.28;3.21;;;;;;;;;;344955;155;858184;-69
2022/07/09 02:18:35;;;;;;;4.45;3.05;;;;;;;;;;350948;152;865228;-69
2022/07/09 02:19:37;;;;;;;4.46;3.19;;;;;;;;;;349518;154;858425;-69
2022/07/09 02:20:39;;;;;;;7.56;3.17;;;;;;;;;;349344;154;864803;-65
2022/07/09 02:21:40;;;;;;;3.84;3.29;;;;;;;;;;349210;154;866170;-64
2022/07/09 02:22:42;;;;;;;3.75;3.14;;;;;;;;;;349106;154;864499;-63
2022/07/09 02:23:45;;;;;;;5.77;3.31;;;;;;;;;;349221;154;866285;-64
2022/07/09 02:24:47;;;;;;;3.49;3.17;;;;;;;;;;349285;154;857247;-63
2022/07/09 02:25:48;;;;;;;3.78;3.05;;;;;;;;;;349248;154;864699;-64
2022/07/09 02:26:50;;;;;;;3.56;3.20;;;;;;;;;;349329;153;862288;-63
2022/07/09 02:27:52;;;;;;;4.34;3.00;;;;;;;;;;344654;155;865437;-63
2022/07/09 02:28:54;;;;;;;3.69;3.25;;;;;;;;;;351116;152;864776;-65
2022/07/09 02:29:58;;;;;;;4.25;3.38;;;;;;;;;;344496;156;859776;-63
2022/07/09 02:30:59;;;;;;;3.41;3.11;;;;;;;;;;351187;152;857367;-64
2022/07/09 02:32:01;;;;;;;4.38;3.49;;;;;;;;;;344768;155;858980;-66
2022/07/09 02:33:03;;;;;;;3.76;3.37;;;;;;;;;;351150;152;864748;-64
2022/07/09 02:34:05;;;;;;;3.42;3.11;;;;;;;;;;344635;156;865833;-65
2022/07/09 02:35:07;;;;;;;3.86;3.17;;;;;;;;;;351242;152;857797;-65
2022/07/09 02:36:10;;;;;;;3.96;3.46;;;;;;;;;;344712;156;858039;-63
2022/07/09 02:37:14;;;;;;;4.95;3.01;;;;;;;;;;350391;152;857917;-65
2022/07/09 02:38:16;;;;;;;4.13;3.27;;;;;;;;;;349099;154;864869;-64
2022/07/09 02:39:17;;;;;;;3.74;3.11;;;;;;;;;;349319;154;857676;-64
2022/07/09 02:40:21;;;;;;;3.92;3.09;;;;;;;;;;349057;154;859651;-64
2022/07/09 02:41:23;;;;;;;5.97;2.86;;;;;;;;;;348406;154;857304;-64
2022/07/09 02:42:25;;;;;;;5.06;3.21;;;;;;;;;;348479;154;857289;-64
2022/07/09 02:43:26;;;;;;;4.72;3.14;;;;;;;;;;348476;154;865603;-65
2022/07/09 02:44:28;;;;;;;4.33;3.37;;;;;;;;;;348453;154;864386;-65
2022/07/09 02:45:30;;;;;;;3.99;3.14;;;;;;;;;;348522;154;865934;-65
2022/07/09 02:46:32;;;;;;;3.66;3.34;;;;;;;;;;348406;154;858030;-65
2022/07/09 02:47:34;;;;;;;6.37;3.29;;;;;;;;;;348547;153;866915;-64
2022/07/09 02:48:35;;;;;;;4.90;3.06;;;;;;;;;;348561;154;864619;-70
2022/07/09 02:49:37;;;;;;;4.02;3.27;;;;;;;;;;348801;154;864441;-71
2022/07/09 02:50:39;;;;;;;3.33;3.03;;;;;;;;;;348727;154;857869;-70
2022/07/09 02:51:41;;;;;;;3.71;3.28;;;;;;;;;;348643;153;860215;-65
2022/07/09 02:52:42;;;;;;;3.26;2.84;;;;;;;;;;348390;154;865589;-64
2022/07/09 02:53:44;;;;;;;3.53;3.18;;;;;;;;;;348542;154;864771;-65
2022/07/09 02:54:46;;;;;;;4.29;3.59;;;;;;;;;;348530;153;865307;-63
2022/07/09 02:55:47;;;;;;;4.00;2.96;;;;;;;;;;348552;154;864768;-64
2022/07/09 02:56:49;;;;;;;2.79;2.55;;;;;;;;;;348512;154;859337;-66
2022/07/09 02:57:51;;;;;;;3.34;3.04;;;;;;;;;;348741;153;857972;-64
2022/07/09 02:58:54;;;;;;;3.79;2.87;;;;;;;;;;348395;153;864938;-65
2022/07/09 02:59:55;;;;;;;4.55;2.79;;;;;;;;;;348485;154;857767;-65
2022/07/09 03:00:57;;;;;;;3.23;2.93;;;;;;;;;;348391;154;859144;-65
2022/07/09 03:01:59;;;;;;;2.86;2.61;;;;;;;;;;348453;154;858969;-66
2022/07/09 03:03:01;;;;;;;3.25;2.95;;;;;;;;;;348440;154;864743;-65
2022/07/09 03:04:03;;;;;;;2.89;2.60;;;;;;;;;;349079;153;866291;-62
2022/07/09 03:05:05;;;;;;;3.33;2.64;;;;;;;;;;348397;154;864755;-64
2022/07/09 03:06:08;;;;;;;3.87;3.02;;;;;;;;;;348285;154;857612;-66
2022/07/09 03:07:10;;;;;;;5.96;2.80;;;;;;;;;;348301;154;858092;-67
2022/07/09 03:08:11;;;;;;;3.39;2.64;;;;;;;;;;348282;154;865365;-64
2022/07/09 03:09:14;;;;;;;3.23;2.64;;;;;;;;;;348407;154;864949;-66
2022/07/09 03:10:18;;;;;;;2.61;2.41;;;;;;;;;;348329;154;866498;-65
2022/07/09 03:11:20;;;;;;;4.67;2.97;;;;;;;;;;348442;154;866723;-63
2022/07/09 03:12:22;;;;;;;3.01;2.61;;;;;;;;;;348625;154;866454;-64
2022/07/09 03:13:23;;;;;;;2.74;2.51;;;;;;;;;;348615;154;857309;-63
2022/07/09 03:14:25;;;;;;;3.93;2.83;;;;;;;;;;351494;153;857501;-65
2022/07/09 03:15:27;;;;;;;3.10;2.56;;;;;;;;;;344970;155;859599;-65
2022/07/09 03:16:32;;;;;;;3.59;2.85;;;;;;;;;;352525;152;859153;-66
2022/07/09 03:17:34;;;;;;;3.10;2.72;;;;;;;;;;352483;152;859721;-66
2022/07/09 03:18:37;;;;;;;3.38;2.71;;;;;;;;;;352594;151;857813;-68
2022/07/09 03:19:39;;;;;;;4.34;2.51;;;;;;;;;;352578;152;857291;-69
2022/07/09 03:20:41;;;;;;;3.20;2.90;;;;;;;;;;352876;152;858994;-69
2022/07/09 03:21:42;;;;;;;2.67;2.47;;;;;;;;;;352696;152;864679;-67
2022/07/09 03:22:44;;;;;;;3.61;2.74;;;;;;;;;;352757;152;858906;-63
2022/07/09 03:23:46;;;;;;;2.63;2.43;;;;;;;;;;352219;152;864775;-63
2022/07/09 03:24:48;;;;;;;3.06;2.77;;;;;;;;;;352026;152;859418;-65
2022/07/09 03:25:50;;;;;;;2.76;2.54;;;;;;;;;;351943;153;857471;-64
2022/07/09 03:26:51;;;;;;;2.86;2.64;;;;;;;;;;349972;154;864887;-64
2022/07/09 03:27:54;;;;;;;3.31;2.82;;;;;;;;;;356395;149;866339;-66
2022/07/09 03:28:55;;;;;;;3.04;2.74;;;;;;;;;;356385;151;864877;-63
2022/07/09 03:29:57;;;;;;;3.49;3.16;;;;;;;;;;351894;153;858937;-63
2022/07/09 03:30:59;;;;;;;3.71;2.97;;;;;;;;;;342661;157;857783;-65
2022/07/09 03:32:01;;;;;;;3.36;3.06;;;;;;;;;;356351;150;857510;-66
2022/07/09 03:33:03;;;;;;;4.84;2.87;;;;;;;;;;356464;151;857075;-65
2022/07/09 03:34:05;;;;;;;3.33;2.94;;;;;;;;;;356181;150;865662;-64
2022/07/09 03:35:07;;;;;;;5.75;2.81;;;;;;;;;;356457;151;857497;-64
2022/07/09 03:36:10;;;;;;;3.05;2.78;;;;;;;;;;351840;153;859203;-65
2022/07/09 03:37:11;;;;;;;3.56;3.26;;;;;;;;;;337269;158;857717;-63
2022/07/09 03:38:13;;;;;;;5.30;2.99;;;;;;;;;;350972;151;866512;-64
2022/07/09 03:39:14;;;;;;;3.70;3.11;;;;;;;;;;351999;153;857325;-64
2022/07/09 03:40:17;;;;;;;5.73;3.24;;;;;;;;;;342725;157;858656;-65
2022/07/09 03:41:18;;;;;;;3.73;3.06;;;;;;;;;;354391;148;857733;-63
2022/07/09 03:42:20;;;;;;;3.48;3.18;;;;;;;;;;351721;153;864769;-64
2022/07/09 03:43:22;;;;;;;4.59;2.57;;;;;;;;;;346902;155;864959;-64
2022/07/09 03:44:23;;;;;;;3.14;2.86;;;;;;;;;;350865;151;864923;-65
2022/07/09 03:45:25;;;;;;;3.11;2.76;;;;;;;;;;352081;153;864738;-65
2022/07/09 03:46:36;;;;;;;3.20;2.91;;;;;;;;;;352080;152;865791;-66
2022/07/09 03:47:38;;;;;;;4.36;2.73;;;;;;;;;;351716;153;858149;-65
2022/07/09 03:48:40;;;;;;;3.44;2.71;;;;;;;;;;352158;153;857791;-66
2022/07/09 03:49:42;;;;;;;3.07;2.83;;;;;;;;;;352077;153;866493;-66
2022/07/09 03:50:44;;;;;;;4.41;2.96;;;;;;;;;;352139;152;857279;-67
2022/07/09 03:51:46;;;;;;;3.10;2.79;;;;;;;;;;352122;152;857822;-65
2022/07/09 03:52:47;;;;;;;4.41;3.21;;;;;;;;;;352404;153;866076;-69
2022/07/09 03:53:49;;;;;;;2.81;2.59;;;;;;;;;;352364;152;857232;-69
2022/07/09 03:54:51;;;;;;;3.41;2.88;;;;;;;;;;352225;153;858848;-65
2022/07/09 03:55:52;;;;;;;3.89;2.91;;;;;;;;;;352155;152;865734;-65
2022/07/09 03:56:54;;;;;;;2.86;2.61;;;;;;;;;;352015;152;865228;-65
2022/07/09 03:57:56;;;;;;;2.78;2.54;;;;;;;;;;352016;152;865366;-64
2022/07/09 03:58:57;;;;;;;5.02;2.97;;;;;;;;;;352074;151;866229;-64
2022/07/09 03:59:59;;;;;;;3.11;2.82;;;;;;;;;;351876;152;858595;-65
2022/07/09 04:01:01;;;;;;;3.54;2.79;;;;;;;;;;352036;151;866233;-63
2022/07/09 04:02:04;;;;;;;3.11;2.65;;;;;;;;;;352121;152;857933;-64
2022/07/09 04:03:06;;;;;;;4.07;2.75;;;;;;;;;;351986;153;865275;-65
2022/07/09 04:04:07;;;;;;;4.06;2.75;;;;;;;;;;352086;153;858783;-65
2022/07/09 04:05:09;;;;;;;7.22;2.58;;;;;;;;;;352042;152;857329;-65
2022/07/09 04:06:12;;;;;;;3.47;2.66;;;;;;;;;;351943;150;858614;-66
2022/07/09 04:07:14;;;;;;;3.91;2.64;;;;;;;;;;352070;152;857505;-66
2022/07/09 04:08:16;;;;;;;3.73;2.59;;;;;;;;;;352104;153;866196;-65
2022/07/09 04:09:17;;;;;;;3.06;2.68;;;;;;;;;;352196;153;859190;-63
2022/07/09 04:10:19;;;;;;;3.01;2.67;;;;;;;;;;345863;155;864761;-66
2022/07/09 04:11:21;;;;;;;2.69;2.46;;;;;;;;;;346568;153;859883;-65
2022/07/09 04:12:23;;;;;;;2.97;2.68;;;;;;;;;;352188;153;866405;-64
2022/07/09 04:13:24;;;;;;;2.74;2.52;;;;;;;;;;349790;153;866336;-65
2022/07/09 04:14:26;;;;;;;6.92;2.37;;;;;;;;;;352106;152;865461;-64
2022/07/09 04:15:28;;;;;;;2.73;2.48;;;;;;;;;;352181;153;857349;-62
2022/07/09 04:16:31;;;;;;;3.13;2.44;;;;;;;;;;351988;152;858308;-64
2022/07/09 04:17:34;;;;;;;2.83;2.61;;;;;;;;;;352130;152;857353;-64
2022/07/09 04:18:35;;;;;;;3.52;2.89;;;;;;;;;;346577;155;864823;-62
2022/07/09 04:19:37;;;;;;;2.58;2.38;;;;;;;;;;350715;151;865663;-70
2022/07/09 04:20:39;;;;;;;3.23;2.82;;;;;;;;;;352303;151;866249;-66
2022/07/09 04:21:41;;;;;;;2.74;2.52;;;;;;;;;;352443;152;857786;-69
2022/07/09 04:22:42;;;;;;;3.58;2.68;;;;;;;;;;352260;153;865333;-65
2022/07/09 04:23:44;;;;;;;3.18;2.70;;;;;;;;;;352149;153;857651;-64
2022/07/09 04:24:46;;;;;;;3.17;2.62;;;;;;;;;;352114;153;865556;-64
2022/07/09 04:25:50;;;;;;;3.43;2.59;;;;;;;;;;352226;152;857406;-64
2022/07/09 04:26:51;;;;;;;4.15;3.00;;;;;;;;;;351984;152;859130;-64
2022/07/09 04:27:53;;;;;;;4.09;2.98;;;;;;;;;;352116;152;859657;-65
2022/07/09 04:28:55;;;;;;;3.69;3.08;;;;;;;;;;353088;152;857274;-65
2022/07/09 04:29:57;;;;;;;3.01;2.76;;;;;;;;;;352656;150;860206;-63
2022/07/09 04:30:59;;;;;;;3.42;2.91;;;;;;;;;;352039;153;864704;-65
2022/07/09 04:32:03;;;;;;;3.37;2.99;;;;;;;;;;349083;154;858042;-62
2022/07/09 04:33:04;;;;;;;4.01;2.87;;;;;;;;;;349186;154;857753;-65
2022/07/09 04:34:06;;;;;;;3.64;2.94;;;;;;;;;;349388;154;857377;-64
2022/07/09 04:35:09;;;;;;;3.36;2.73;;;;;;;;;;349232;154;864808;-64
2022/07/09 04:36:11;;;;;;;3.02;2.68;;;;;;;;;;349374;153;859573;-62
2022/07/09 04:37:13;;;;;;;3.05;2.77;;;;;;;;;;349292;154;857173;-65
2022/07/09 04:38:16;;;;;;;3.63;2.86;;;;;;;;;;349279;154;858034;-64
2022/07/09 04:39:17;;;;;;;3.40;2.84;;;;;;;;;;349345;154;866831;-64
2022/07/09 04:40:19;;;;;;;3.13;2.83;;;;;;;;;;349263;154;867392;-64
2022/07/09 04:41:21;;;;;;;3.06;2.68;;;;;;;;;;349262;154;857319;-65
2022/07/09 04:42:23;;;;;;;3.31;3.01;;;;;;;;;;355575;151;857830;-65
2022/07/09 04:43:25;;;;;;;3.09;2.81;;;;;;;;;;356382;151;857305;-65
2022/07/09 04:44:26;;;;;;;5.93;2.86;;;;;;;;;;356577;151;865781;-65
2022/07/09 04:45:29;;;;;;;5.31;2.35;;;;;;;;;;356498;151;857882;-65
2022/07/09 04:46:32;;;;;;;3.87;3.16;;;;;;;;;;358564;150;865887;-63
2022/07/09 04:47:34;;;;;;;5.06;2.96;;;;;;;;;;359242;150;857602;-65
2022/07/09 04:48:36;;;;;;;2.91;2.70;;;;;;;;;;359186;150;865756;-66
2022/07/09 04:49:37;;;;;;;6.49;2.91;;;;;;;;;;359148;150;858770;-66
2022/07/09 04:50:41;;;;;;;4.52;3.28;;;;;;;;;;359404;150;858809;-66
2022/07/09 04:51:43;;;;;;;3.73;2.74;;;;;;;;;;359296;150;857399;-69
2022/07/09 04:52:44;;;;;;;5.24;2.95;;;;;;;;;;359488;149;857340;-69
2022/07/09 04:53:46;;;;;;;3.14;2.84;;;;;;;;;;356756;151;857456;-65
2022/07/09 04:54:48;;;;;;;4.16;3.13;;;;;;;;;;356592;151;866360;-65
2022/07/09 04:55:49;;;;;;;4.71;2.92;;;;;;;;;;356440;151;857407;-65
2022/07/09 04:56:51;;;;;;;3.52;2.77;;;;;;;;;;356546;151;864897;-65
2022/07/09 04:57:53;;;;;;;2.99;2.65;;;;;;;;;;356490;151;858456;-64
2022/07/09 04:58:55;;;;;;;3.53;3.09;;;;;;;;;;356592;151;857223;-63
2022/07/09 04:59:58;;;;;;;3.39;3.04;;;;;;;;;;356560;150;859194;-64
2022/07/09 05:00:59;;;;;;;3.47;3.11;;;;;;;;;;357126;150;857139;-61
2022/07/09 05:02:21;;;;;;;3.64;3.07;;;;;;;;;;359124;149;858042;-64
2022/07/09 05:03:23;;;;;;;3.46;3.02;;;;;;;;;;347375;155;865424;-65
2022/07/09 05:04:25;;;;;;;3.44;2.94;;;;;;;;;;342673;156;857374;-65
2022/07/09 05:05:26;;;;;;;4.64;2.90;;;;;;;;;;347711;154;866000;-65
2022/07/09 05:06:28;;;;;;;3.66;3.25;;;;;;;;;;341352;157;864800;-65
2022/07/09 05:07:30;;;;;;;4.47;3.61;;;;;;;;;;341730;157;865254;-63
2022/07/09 05:08:32;;;;;;;4.91;3.49;;;;;;;;;;343939;155;864841;-65
2022/07/09 05:09:34;;;;;;;3.60;3.24;;;;;;;;;;342730;157;858149;-65
2022/07/09 05:10:36;;;;;;;4.77;3.44;;;;;;;;;;347544;154;866403;-63
2022/07/09 05:11:37;;;;;;;3.78;3.41;;;;;;;;;;347582;154;859017;-62
2022/07/09 05:12:40;;;;;;;3.57;3.24;;;;;;;;;;347571;155;864697;-64
2022/07/09 05:13:41;;;;;;;4.62;3.57;;;;;;;;;;347656;154;865630;-63
2022/07/09 05:14:44;;;;;;;3.36;3.06;;;;;;;;;;347582;155;858273;-64
2022/07/09 05:15:45;;;;;;;3.15;2.83;;;;;;;;;;347552;154;857514;-66
2022/07/09 05:16:49;;;;;;;4.23;2.95;;;;;;;;;;347330;155;865022;-63
2022/07/09 05:17:50;;;;;;;5.42;3.15;;;;;;;;;;347429;154;859267;-64
2022/07/09 05:18:52;;;;;;;4.74;3.25;;;;;;;;;;347613;154;858730;-65
2022/07/09 05:19:54;;;;;;;3.09;2.79;;;;;;;;;;342720;156;866502;-63
2022/07/09 05:20:56;;;;;;;3.71;2.91;;;;;;;;;;342522;155;865511;-65
2022/07/09 05:21:58;;;;;;;4.17;2.93;;;;;;;;;;347814;154;859050;-66
2022/07/09 05:23:00;;;;;;;4.29;2.99;;;;;;;;;;347824;154;857371;-65
2022/07/09 05:24:01;;;;;;;3.48;2.99;;;;;;;;;;342452;154;864892;-66
2022/07/09 05:25:04;;;;;;;3.64;2.63;;;;;;;;;;342584;154;864841;-65
2022/07/09 05:26:07;;;;;;;3.75;2.79;;;;;;;;;;347420;155;857379;-65
2022/07/09 05:27:09;;;;;;;4.90;3.10;;;;;;;;;;347283;155;857152;-64
2022/07/09 05:28:11;;;;;;;2.59;2.38;;;;;;;;;;338923;157;864866;-66
2022/07/09 05:29:13;;;;;;;2.55;2.35;;;;;;;;;;339022;155;858281;-68
2022/07/09 05:30:17;;;;;;;3.16;2.76;;;;;;;;;;347296;152;857930;-71
2022/07/09 05:31:19;;;;;;;4.24;2.56;;;;;;;;;;347473;155;866651;-70
2022/07/09 05:32:20;;;;;;;6.03;2.59;;;;;;;;;;347482;155;864803;-66
2022/07/09 05:33:22;;;;;;;3.31;2.72;;;;;;;;;;347366;155;864809;-65
2022/07/09 05:34:24;;;;;;;3.84;3.01;;;;;;;;;;342349;157;857294;-65
2022/07/09 05:35:26;;;;;;;3.40;2.75;;;;;;;;;;342693;155;860343;-64
2022/07/09 05:36:30;;;;;;;4.77;2.83;;;;;;;;;;347701;155;857321;-66
2022/07/09 05:37:31;;;;;;;4.30;2.73;;;;;;;;;;347307;154;857825;-65
2022/07/09 05:38:33;;;;;;;3.05;2.72;;;;;;;;;;347443;155;865647;-64
2022/07/09 05:39:36;;;;;;;3.68;3.02;;;;;;;;;;347256;155;865255;-64
2022/07/09 05:40:38;;;;;;;7.70;2.69;;;;;;;;;;347184;155;865384;-65
2022/07/09 05:41:39;;;;;;;3.54;3.01;;;;;;;;;;347192;155;864877;-67
2022/07/09 05:42:41;;;;;;;3.30;2.91;;;;;;;;;;347281;155;866472;-66
2022/07/09 05:43:43;;;;;;;3.39;2.91;;;;;;;;;;347289;154;864658;-62
2022/07/09 05:44:44;;;;;;;4.14;3.01;;;;;;;;;;347254;155;865018;-65
2022/07/09 05:45:46;;;;;;;4.85;2.83;;;;;;;;;;347262;154;857391;-63
2022/07/09 05:46:48;;;;;;;4.21;3.17;;;;;;;;;;342563;156;856697;-64
2022/07/09 05:47:50;;;;;;;3.95;3.24;;;;;;;;;;342514;157;857130;-65
2022/07/09 05:48:52;;;;;;;4.01;3.15;;;;;;;;;;342487;157;859256;-65
2022/07/09 05:49:54;;;;;;;3.70;3.21;;;;;;;;;;347292;154;858216;-64
2022/07/09 05:50:59;;;;;;;3.70;2.89;;;;;;;;;;342504;156;857223;-66
2022/07/09 05:52:02;;;;;;;3.36;2.89;;;;;;;;;;342216;157;857281;-64
2022/07/09 05:53:04;;;;;;;4.34;2.90;;;;;;;;;;342340;157;858744;-65
2022/07/09 05:54:05;;;;;;;4.24;3.15;;;;;;;;;;342340;156;867083;-65
2022/07/09 05:55:08;;;;;;;5.89;3.09;;;;;;;;;;342473;157;865105;-65
2022/07/09 05:56:10;;;;;;;3.39;2.89;;;;;;;;;;347121;155;865155;-64
2022/07/09 05:57:11;;;;;;;4.21;3.03;;;;;;;;;;347239;155;867034;-66
2022/07/09 05:58:13;;;;;;;4.64;2.83;;;;;;;;;;347614;155;857879;-65
2022/07/09 05:59:15;;;;;;;5.47;3.04;;;;;;;;;;342665;157;865712;-65
2022/07/09 06:00:18;;;;;;;5.08;3.21;;;;;;;;;;342660;157;864666;-65
2022/07/09 06:01:19;;;;;;;4.41;2.82;;;;;;;;;;342903;157;865750;-68
2022/07/09 06:02:21;;;;;;;3.17;2.83;;;;;;;;;;347861;155;865775;-70
2022/07/09 06:03:23;;;;;;;3.24;2.55;;;;;;;;;;342532;153;858039;-69
2022/07/09 06:04:26;;;;;;;4.16;2.67;;;;;;;;;;341379;156;857872;-64
2022/07/09 06:05:28;;;;;;;2.82;2.52;;;;;;;;;;341482;157;859001;-66
2022/07/09 06:06:30;;;;;;;2.85;2.61;;;;;;;;;;341417;156;864734;-65
2022/07/09 06:07:32;;;;;;;4.98;2.59;;;;;;;;;;341625;157;857277;-64